Exeter, NH (03833)

5:10 PM EDT on September 25, 2016 (GMT -0400)
| | Change Station

Elev -9999 ft 0.00 °N, 0.00 °E | Updated

Clear
Clear
55 °F
Feels Like 55 °F
N
8
Wind Variable Wind from NW
Gusts 14 mph

Today
High -- | Low -- °F
--% Chance of Precip.
Yesterday
High -- | Low -- °F
Precip. -- in
Pressure 30.07 in
Visibility 10.0 miles
Clouds Few 6000 ft
Dew Point 35 °F
Humidity 47%
Rainfall --
Snow Depth Not available.
6:35 AM 6:35 PM
Waning Crescent, 25% visible
METAR KPSM 252058Z 30011G16KT 10SM FEW060 18/01 A3006 RMK AO2A SLP182 T01750008 55000
Pressure 30.07 in
Visibility 10.0 miles
Clouds Few 6000 ft
Dew Point 35 °F
Humidity 47%
Rainfall --
Snow Depth Not available.
6:35 AM 6:35 PM
Waning Crescent, 25% visible
METAR KPSM 252058Z 30011G16KT 10SM FEW060 18/01 A3006 RMK AO2A SLP182 T01750008 55000

10-Day Weather Forecast

Almanac

Astronomy

Sep. 25, 2016 Rise Set
Actual Time
Civil Twilight
Nautical Twilight
Astronomical Twilight
Moon
Length of Visible Light
Length of Day
Tomorrow will be .
, % of the Moon is Illuminated

Today's Extremes

State Highs State Lows

Community

WunderPhotos

Upload Photos

1,941,731 photos uploaded!

WunderBlog® & News

Nearby

Air Quality

  Air Quality AQ Index Pollutant
Not available.

Snow Depth

Station Depth Elevation

Earthquake Activity

City Distance Mag. Time & Date
Minimum magnitude displayed is 2.5.

Coastal Water Temperatures

Place Temperature

Stations

Nearby Weather Stations

Station Location Temp. Windchill Dew Point Humidity Wind Precip. Elev Updated Type
                   

Watches & Warnings

There are currently no watches in effect.